createdAt,value
2019-03-17T00:00:49.971Z,10.60
2019-03-17T00:05:57.586Z,10.70
2019-03-17T00:11:04.508Z,10.80
2019-03-17T00:16:10.573Z,10.70
2019-03-17T00:21:19.381Z,10.60
2019-03-17T00:26:26.902Z,10.40
2019-03-17T00:31:33.949Z,10.30
2019-03-17T00:36:42.000Z,10.30
2019-03-17T00:41:49.754Z,9.90
2019-03-17T00:46:57.343Z,10.10
2019-03-17T00:52:05.049Z,10.10
2019-03-17T00:57:12.069Z,10.20
2019-03-17T01:02:19.743Z,9.90
2019-03-17T01:07:27.302Z,10.10
2019-03-17T01:12:34.863Z,10.20
2019-03-17T01:17:42.518Z,10.20
2019-03-17T01:22:50.326Z,9.90
2019-03-17T01:27:57.982Z,9.50
2019-03-17T01:33:06.976Z,9.70
2019-03-17T01:38:16.335Z,9.60
2019-03-17T01:43:23.311Z,9.60
2019-03-17T01:48:30.184Z,9.30
2019-03-17T01:53:37.834Z,9.20
2019-03-17T01:58:45.255Z,9.30
2019-03-17T02:03:52.351Z,9.20
2019-03-17T02:08:59.891Z,9.20
2019-03-17T02:14:07.498Z,9.40
2019-03-17T02:19:15.857Z,9.50
2019-03-17T02:24:23.157Z,9.60
2019-03-17T02:29:29.929Z,9.50
2019-03-17T02:34:37.556Z,9.50
2019-03-17T02:39:44.194Z,9.70
2019-03-17T02:44:51.569Z,9.30
2019-03-17T02:49:57.894Z,9.10
2019-03-17T02:55:03.991Z,9.20
2019-03-17T03:00:12.731Z,8.80
2019-03-17T03:05:20.517Z,8.70
2019-03-17T03:10:31.851Z,8.60
2019-03-17T03:15:39.039Z,8.80
2019-03-17T03:20:47.096Z,9.10
2019-03-17T03:25:55.204Z,9.10
2019-03-17T03:31:02.989Z,9.00
2019-03-17T03:36:12.092Z,8.80
2019-03-17T03:41:20.205Z,8.70
2019-03-17T03:46:26.103Z,8.70
2019-03-17T03:51:33.211Z,8.90
2019-03-17T03:56:40.925Z,8.90
2019-03-17T04:01:46.947Z,9.00
2019-03-17T04:06:53.884Z,9.20
2019-03-17T04:12:01.118Z,8.80
2019-03-17T04:17:08.759Z,8.50
2019-03-17T04:22:15.078Z,8.00
2019-03-17T04:27:22.641Z,8.40
2019-03-17T04:32:30.212Z,8.30
2019-03-17T04:37:37.763Z,7.80
2019-03-17T04:42:44.068Z,8.40
2019-03-17T04:47:51.554Z,8.80
2019-03-17T04:53:01.665Z,8.70
2019-03-17T04:58:09.464Z,8.70
2019-03-17T05:03:16.314Z,8.40
2019-03-17T05:08:24.070Z,8.40
2019-03-17T05:13:34.541Z,8.00
2019-03-17T05:18:43.401Z,7.90
2019-03-17T05:23:50.407Z,8.00
2019-03-17T05:28:57.856Z,8.20
2019-03-17T05:34:05.540Z,8.40
2019-03-17T05:39:13.146Z,8.60
2019-03-17T05:44:20.982Z,8.50
2019-03-17T05:49:28.756Z,8.50
2019-03-17T05:54:34.841Z,8.50
2019-03-17T05:59:41.704Z,8.40
2019-03-17T06:04:49.512Z,8.70
2019-03-17T06:09:57.082Z,8.80
2019-03-17T06:15:04.480Z,8.70
2019-03-17T06:20:11.125Z,8.10
2019-03-17T06:25:18.779Z,8.20
2019-03-17T06:30:24.991Z,8.50
2019-03-17T06:35:31.676Z,8.60
2019-03-17T06:40:39.307Z,8.80
2019-03-17T06:45:45.426Z,9.00
2019-03-17T06:50:53.165Z,9.10
2019-03-17T06:56:00.862Z,9.50
2019-03-17T07:01:08.396Z,9.60
2019-03-17T07:06:15.007Z,10.10
2019-03-17T07:11:22.698Z,10.30
2019-03-17T07:16:30.334Z,10.60
2019-03-17T07:21:36.631Z,10.90
2019-03-17T07:26:43.512Z,11.30
2019-03-17T07:31:51.350Z,11.50
2019-03-17T07:36:58.986Z,11.60
2019-03-17T07:42:05.089Z,12.00
2019-03-17T07:47:12.574Z,12.40
2019-03-17T07:52:18.976Z,12.60
2019-03-17T07:57:26.355Z,12.80
2019-03-17T08:02:33.186Z,13.20
2019-03-17T08:07:40.814Z,13.50
2019-03-17T08:12:47.608Z,13.80
2019-03-17T08:17:53.754Z,14.30
2019-03-17T08:23:01.647Z,14.40
2019-03-17T08:28:09.187Z,14.70
2019-03-17T08:33:16.741Z,14.90
2019-03-17T08:38:24.711Z,15.00
2019-03-17T08:43:32.066Z,15.40
2019-03-17T08:48:39.226Z,15.70
2019-03-17T08:53:46.539Z,14.90
2019-03-17T08:58:53.792Z,14.40
2019-03-17T09:04:00.842Z,14.30
2019-03-17T09:09:09.065Z,14.10
2019-03-17T09:14:14.986Z,14.10
2019-03-17T09:19:22.386Z,14.40
2019-03-17T09:24:29.870Z,14.90
2019-03-17T09:29:37.223Z,15.10
2019-03-17T09:34:43.620Z,15.00
2019-03-17T09:39:49.813Z,14.90
2019-03-17T09:44:56.498Z,15.00
2019-03-17T09:50:03.617Z,15.60
2019-03-17T09:55:10.778Z,16.10
2019-03-17T10:00:18.312Z,16.40
2019-03-17T10:05:25.087Z,16.40
2019-03-17T10:10:35.286Z,16.70
2019-03-17T10:15:43.072Z,16.70
2019-03-17T10:20:49.235Z,16.90
2019-03-17T10:25:56.808Z,16.70
2019-03-17T10:31:03.712Z,17.20
2019-03-17T10:36:09.817Z,17.20
2019-03-17T10:41:17.731Z,16.80
2019-03-17T10:46:23.969Z,17.10
2019-03-17T10:51:31.202Z,17.40
2019-03-17T10:56:38.829Z,17.80
2019-03-17T11:01:45.686Z,19.10
2019-03-17T11:06:53.011Z,18.60
2019-03-17T11:11:59.115Z,17.80
2019-03-17T11:17:06.679Z,17.80
2019-03-17T11:22:13.231Z,18.40
2019-03-17T11:27:20.889Z,17.80
2019-03-17T11:32:28.416Z,17.80
2019-03-17T11:37:34.359Z,18.30
2019-03-17T11:42:41.619Z,19.90
2019-03-17T11:47:49.432Z,19.70
2019-03-17T11:52:57.122Z,18.90
2019-03-17T11:58:04.103Z,19.70
2019-03-17T12:03:11.461Z,19.80
2019-03-17T12:08:19.022Z,19.50
2019-03-17T12:13:26.160Z,18.60
2019-03-17T12:18:33.041Z,18.60
2019-03-17T12:23:40.171Z,18.20
2019-03-17T12:28:47.355Z,18.60
2019-03-17T12:33:54.332Z,18.90
2019-03-17T12:39:02.049Z,19.30
2019-03-17T12:44:09.667Z,19.80
2019-03-17T12:49:17.208Z,20.30
2019-03-17T12:54:23.151Z,20.00
2019-03-17T12:59:30.724Z,20.10
2019-03-17T13:04:38.360Z,20.60
2019-03-17T13:09:45.936Z,20.60
2019-03-17T13:14:52.847Z,20.30
2019-03-17T13:19:59.494Z,20.50
2019-03-17T13:25:06.510Z,20.40
2019-03-17T13:30:14.506Z,21.40
2019-03-17T13:35:22.166Z,21.30
2019-03-17T13:40:30.209Z,20.80
2019-03-17T13:45:37.882Z,20.80
2019-03-17T13:50:45.030Z,21.40
2019-03-17T13:55:53.291Z,20.90
2019-03-17T14:00:59.955Z,21.90
2019-03-17T14:06:07.589Z,22.30
2019-03-17T14:11:13.636Z,23.00
2019-03-17T14:16:20.536Z,22.80
2019-03-17T14:21:28.223Z,23.20
2019-03-17T14:26:34.375Z,23.40
2019-03-17T14:31:40.315Z,23.70
2019-03-17T14:36:48.357Z,23.40
2019-03-17T14:41:54.528Z,23.50
2019-03-17T14:47:01.589Z,23.90
2019-03-17T14:52:09.148Z,24.20
2019-03-17T14:57:16.820Z,23.80
2019-03-17T15:02:23.735Z,23.90
2019-03-17T15:07:31.058Z,23.30
2019-03-17T15:12:37.300Z,23.10
2019-03-17T15:17:43.659Z,23.60
2019-03-17T15:22:51.194Z,23.50
2019-03-17T15:27:59.022Z,23.10
2019-03-17T15:33:05.112Z,23.40
2019-03-17T15:38:12.520Z,22.90
2019-03-17T15:43:20.144Z,22.70
2019-03-17T15:48:26.049Z,22.70
2019-03-17T15:53:32.840Z,22.80
2019-03-17T15:58:40.367Z,22.70
2019-03-17T16:03:48.134Z,22.20
2019-03-17T16:08:55.294Z,22.20
2019-03-17T16:14:02.562Z,22.10
2019-03-17T16:19:10.177Z,20.10
2019-03-17T16:24:17.633Z,20.90
2019-03-17T16:29:24.509Z,19.80
2019-03-17T16:34:31.336Z,19.20
2019-03-17T16:39:39.249Z,18.90
2019-03-17T16:44:46.045Z,18.70
2019-03-17T16:49:52.879Z,18.90
2019-03-17T16:54:59.062Z,18.60
2019-03-17T17:00:06.762Z,17.80
2019-03-17T17:05:14.020Z,17.40
2019-03-17T17:10:20.449Z,17.00
2019-03-17T17:15:28.262Z,16.60
2019-03-17T17:20:39.096Z,16.60
2019-03-17T17:45:38.909Z,15.70
2019-03-17T17:51:03.740Z,15.70
2019-03-17T17:56:27.870Z,15.30
2019-03-17T18:01:52.268Z,15.30
2019-03-17T18:07:16.810Z,15.30
2019-03-17T18:12:41.048Z,15.20
2019-03-17T18:18:06.268Z,15.10
2019-03-17T18:23:30.802Z,15.00
2019-03-17T18:28:55.089Z,14.90
2019-03-17T18:34:19.411Z,14.90
2019-03-17T18:39:43.999Z,14.80
2019-03-17T18:45:08.544Z,14.80
2019-03-17T18:50:32.818Z,14.80
2019-03-17T18:55:57.365Z,14.90
2019-03-17T19:01:21.553Z,14.90
2019-03-17T19:06:47.181Z,14.80
2019-03-17T19:12:13.316Z,14.90
2019-03-17T19:17:37.800Z,14.80
2019-03-17T19:23:02.674Z,14.80
2019-03-17T19:28:26.742Z,14.70
2019-03-17T19:34:09.472Z,14.40
2019-03-17T19:39:47.395Z,14.30
2019-03-17T19:45:12.012Z,14.40
2019-03-17T19:50:36.472Z,14.40
2019-03-17T19:56:01.340Z,14.20
2019-03-17T20:01:26.840Z,13.60
2019-03-17T20:07:04.669Z,13.90
2019-03-17T20:12:35.841Z,13.90
2019-03-17T20:18:03.093Z,13.90
2019-03-17T20:23:35.355Z,13.90
2019-03-17T20:28:59.740Z,13.90
2019-03-17T20:34:24.298Z,13.90
2019-03-17T20:39:49.915Z,14.00
2019-03-17T20:45:14.801Z,13.90
2019-03-17T20:50:54.144Z,13.80
2019-03-17T20:56:23.740Z,13.70
2019-03-17T21:01:48.701Z,13.70
2019-03-17T21:07:13.863Z,13.70
2019-03-17T21:12:46.636Z,13.70
2019-03-17T21:18:11.154Z,13.60
2019-03-17T21:23:46.492Z,13.50
2019-03-17T21:29:36.307Z,13.60
2019-03-17T21:35:29.122Z,13.70
2019-03-17T21:41:06.074Z,13.70
2019-03-17T21:46:27.696Z,13.70
2019-03-17T21:51:51.643Z,13.80
2019-03-17T21:57:15.950Z,13.80
2019-03-17T22:03:03.270Z,13.80
2019-03-17T22:08:27.313Z,13.90
2019-03-17T22:13:51.752Z,13.80
2019-03-17T22:19:19.135Z,13.90
2019-03-17T22:24:43.627Z,14.10
2019-03-17T22:30:11.870Z,14.20
2019-03-17T22:35:36.142Z,14.20
2019-03-17T22:41:00.323Z,14.20
2019-03-17T22:46:25.675Z,14.30
2019-03-17T22:51:50.319Z,14.30
2019-03-17T22:57:14.543Z,14.20
2019-03-17T23:02:38.839Z,14.20
2019-03-17T23:08:03.147Z,14.20
2019-03-17T23:13:27.483Z,14.10
2019-03-17T23:18:52.017Z,14.20
2019-03-17T23:24:16.310Z,14.10
2019-03-17T23:29:40.276Z,14.00
2019-03-17T23:35:04.755Z,14.00
2019-03-17T23:40:29.219Z,14.10
2019-03-17T23:45:53.346Z,14.10
2019-03-17T23:51:18.000Z,14.10
2019-03-17T23:56:42.191Z,14.00
